PDT,Max TemperatureF,Mean TemperatureF,Min TemperatureF,Max Dew PointF,MeanDew PointF,Min DewpointF,Max Humidity, Mean Humidity, Min Humidity, Max Sea Level PressureIn, Mean Sea Level PressureIn, Min Sea Level PressureIn, Max VisibilityMiles, Mean VisibilityMiles, Min VisibilityMiles, Max Wind SpeedMPH, Mean Wind SpeedMPH, Max Gust SpeedMPH,PrecipitationIn, CloudCover, Events, WindDirDegrees
2013-8-1,66,60,55,57,53,52,94,80,63,30.07,30.06,30.05,10,9,5,13,6,,0.00,7,,196
2013-8-2,60,58,57,57,54,52,97,87,75,30.15,30.12,30.07,10,7,2,12,7,,0.26,8,Rain,188
2013-8-3,71,63,55,57,55,53,100,86,57,30.15,30.13,30.09,10,6,0,7,2,,0.01,5,Fog,354
2013-8-4,77,65,55,57,55,53,94,82,51,30.08,30.05,29.97,10,8,0,8,4,,0.00,3,Fog,2
2013-8-5,79,68,57,56,54,50,94,71,45,30.04,30.00,29.96,10,9,1,8,3,,0.00,1,,355
2013-8-6,78,66,53,53,51,47,94,67,37,30.02,29.99,29.95,10,9,0,6,4,,0.00,1,Fog,14
2013-8-7,79,65,53,54,52,49,94,65,37,30.03,30.00,29.98,10,10,4,8,4,,0.00,0,,358
2013-8-8,75,65,57,56,54,51,90,72,55,30.05,30.01,29.97,10,10,10,8,4,,0.00,0,,7
2013-8-9,79,66,55,56,54,51,96,78,43,29.98,29.94,29.87,10,6,0,7,4,,0.00,2,Fog,7
2013-8-10,73,65,57,60,57,55,94,78,59,30.02,29.98,29.90,10,10,7,12,7,,0.06,2,Rain-Thunderstorm,231
2013-8-11,71,62,55,55,53,51,94,80,58,30.08,30.05,30.02,10,9,6,10,5,,0.03,4,Rain,270
2013-8-12,73,64,55,54,53,51,94,75,48,30.09,30.06,30.03,10,10,10,12,4,,0.00,4,,350
2013-8-13,77,66,57,54,52,51,87,67,43,30.12,30.08,29.98,10,10,10,7,3,,0.00,2,,360
2013-8-14,82,68,57,61,55,49,87,65,34,29.98,29.95,29.93,10,10,10,12,4,,0.02,2,Rain,177
2013-8-15,69,65,61,64,61,59,94,87,75,30.02,29.99,29.94,10,8,2,9,4,,0.06,7,Rain,179
2013-8-16,80,69,60,61,59,51,100,84,40,30.03,30.00,29.97,10,5,0,10,2,,0.00,5,Fog,190
2013-8-17,73,66,59,57,55,52,80,69,57,30.09,30.06,30.02,10,10,10,15,6,,0.00,5,,231
2013-8-18,72,65,59,55,53,49,81,67,49,30.14,30.11,30.09,10,10,10,14,4,20,0.00,4,,2
2013-8-19,75,66,59,54,52,48,80,65,51,30.13,30.11,30.09,10,10,10,10,5,18,0.00,5,,358
2013-8-20,73,64,55,53,50,48,84,67,43,30.19,30.15,30.11,10,10,10,12,7,17,0.00,2,,4
2013-8-21,75,65,55,51,49,47,83,60,42,30.12,30.05,29.97,10,10,10,10,5,18,0.00,0,,358
2013-8-22,82,68,57,53,49,47,69,53,36,29.96,29.90,29.83,10,10,10,6,2,,0.00,0,,357
2013-8-23,73,66,60,55,53,50,82,66,46,29.91,29.88,29.85,10,10,10,16,7,22,0.00,6,,187
2013-8-24,72,64,57,57,54,50,94,78,47,29.94,29.91,29.89,10,10,7,8,3,,0.00,6,Rain,288
2013-8-25,68,61,54,56,52,50,86,70,54,29.96,29.93,29.89,10,10,10,7,3,,0.00,3,,15
2013-8-26,77,68,60,56,54,44,83,69,34,29.97,29.91,29.87,10,10,10,21,8,33,0.00,6,Rain,181
2013-8-27,75,66,57,56,55,53,90,70,46,29.96,29.90,29.83,10,10,10,12,7,,0.01,4,,202
2013-8-28,75,67,59,61,58,55,93,73,50,29.91,29.88,29.85,10,10,7,10,4,,0.12,5,Rain,208
2013-8-29,73,67,62,63,61,57,94,84,64,30.03,29.94,29.88,10,8,0,21,9,28,1.47,7,Fog-Rain-Thunderstorm,173
2013-8-30,73,66,59,61,55,49,88,70,42,30.17,30.11,30.03,10,10,10,21,12,26,0.00,1,,188
2013-8-31,73,64,55,55,54,52,94,75,53,30.10,29.99,29.86,10,9,3,9,3,,0.00,1,,8